sensor_id;sensor_type;location;lat;lon;timestamp;pressure;altitude;pressure_sealevel;temperature;humidity
10466;BME280;5280;42.600;23.556;2023-02-13T00:02:06;95096.81;;;-0.26;100.00
10466;BME280;5280;42.600;23.556;2023-02-13T00:04:34;95083.00;;;-0.34;100.00
10466;BME280;5280;42.600;23.556;2023-02-13T00:07:01;95097.63;;;-0.22;100.00
10466;BME280;5280;42.600;23.556;2023-02-13T00:09:28;95096.69;;;-0.17;100.00
10466;BME280;5280;42.600;23.556;2023-02-13T00:11:58;95093.25;;;-0.19;100.00
10466;BME280;5280;42.600;23.556;2023-02-13T00:14:25;95096.72;;;-0.18;100.00
10466;BME280;5280;42.600;23.556;2023-02-13T00:16:52;95085.38;;;-0.13;100.00
10466;BME280;5280;42.600;23.556;2023-02-13T00:19:19;95099.19;;;-0.06;100.00
10466;BME280;5280;42.600;23.556;2023-02-13T00:21:47;95110.34;;;0.04;100.00
10466;BME280;5280;42.600;23.556;2023-02-13T00:24:14;95093.94;;;-0.05;100.00
10466;BME280;5280;42.600;23.556;2023-02-13T00:26:40;95108.50;;;0.12;100.00
10466;BME280;5280;42.600;23.556;2023-02-13T00:29:07;95104.16;;;0.14;100.00
10466;BME280;5280;42.600;23.556;2023-02-13T00:31:34;95093.06;;;-0.01;100.00
10466;BME280;5280;42.600;23.556;2023-02-13T00:34:01;95111.09;;;0.10;100.00
10466;BME280;5280;42.600;23.556;2023-02-13T00:36:28;95091.28;;;0.02;100.00
10466;BME280;5280;42.600;23.556;2023-02-13T00:38:56;95116.28;;;0.10;100.00
10466;BME280;5280;42.600;23.556;2023-02-13T00:41:22;95071.59;;;-0.16;100.00
10466;BME280;5280;42.600;23.556;2023-02-13T00:43:49;95059.50;;;-0.20;100.00
10466;BME280;5280;42.600;23.556;2023-02-13T00:46:16;95099.94;;;0.04;100.00
10466;BME280;5280;42.600;23.556;2023-02-13T00:48:44;95104.16;;;0.14;100.00
10466;BME280;5280;42.600;23.556;2023-02-13T00:51:11;95098.91;;;0.15;100.00
10466;BME280;5280;42.600;23.556;2023-02-13T00:53:38;95104.09;;;0.15;100.00
10466;BME280;5280;42.600;23.556;2023-02-13T00:56:07;95102.34;;;0.19;100.00
10466;BME280;5280;42.600;23.556;2023-02-13T00:58:37;95107.56;;;0.19;100.00
10466;BME280;5280;42.600;23.556;2023-02-13T01:01:04;95112.69;;;0.22;100.00
10466;BME280;5280;42.600;23.556;2023-02-13T01:03:31;95092.13;;;0.04;100.00
10466;BME280;5280;42.600;23.556;2023-02-13T01:05:58;95104.97;;;0.16;100.00
10466;BME280;5280;42.600;23.556;2023-02-13T01:08:25;95099.78;;;0.16;100.00
10466;BME280;5280;42.600;23.556;2023-02-13T01:10:53;95104.16;;;0.14;100.00
10466;BME280;5280;42.600;23.556;2023-02-13T01:13:22;95094.69;;;0.05;100.00
10466;BME280;5280;42.600;23.556;2023-02-13T01:15:49;95101.63;;;0.08;100.00
10466;BME280;5280;42.600;23.556;2023-02-13T01:18:18;95100.69;;;0.15;100.00
10466;BME280;5280;42.600;23.556;2023-02-13T01:20:55;95097.97;;;0.21;100.00
10466;BME280;5280;42.600;23.556;2023-02-13T01:23:22;95098.88;;;0.20;100.00
10466;BME280;5280;42.600;23.556;2023-02-13T01:25:49;95093.69;;;0.18;100.00
10466;BME280;5280;42.600;23.556;2023-02-13T01:28:16;95109.13;;;0.30;100.00
10466;BME280;5280;42.600;23.556;2023-02-13T01:30:45;95084.16;;;0.19;100.00
10466;BME280;5280;42.600;23.556;2023-02-13T01:33:21;95119.38;;;0.42;100.00
10466;BME280;5280;42.600;23.556;2023-02-13T01:35:48;95114.16;;;0.44;100.00
10466;BME280;5280;42.600;23.556;2023-02-13T01:38:15;95075.38;;;0.26;100.00
10466;BME280;5280;42.600;23.556;2023-02-13T01:40:45;95098.59;;;0.41;100.00
10466;BME280;5280;42.600;23.556;2023-02-13T01:43:13;95113.19;;;0.51;100.00
10466;BME280;5280;42.600;23.556;2023-02-13T01:45:41;95121.06;;;0.45;100.00
10466;BME280;5280;42.600;23.556;2023-02-13T01:48:14;95118.53;;;0.40;100.00
10466;BME280;5280;42.600;23.556;2023-02-13T01:50:46;95110.88;;;0.30;100.00
10466;BME280;5280;42.600;23.556;2023-02-13T01:53:20;95128.09;;;0.38;100.00
10466;BME280;5280;42.600;23.556;2023-02-13T01:55:53;95111.84;;;0.23;100.00
10466;BME280;5280;42.600;23.556;2023-02-13T01:58:24;95125.69;;;0.25;100.00
10466;BME280;5280;42.600;23.556;2023-02-13T02:00:52;95050.88;;;-0.22;100.00
10466;BME280;5280;42.600;23.556;2023-02-13T02:03:23;95103.34;;;0.09;100.00
10466;BME280;5280;42.600;23.556;2023-02-13T02:05:54;95113.69;;;0.12;100.00
10466;BME280;5280;42.600;23.556;2023-02-13T02:08:22;95116.28;;;0.12;100.00
10466;BME280;5280;42.600;23.556;2023-02-13T02:10:50;95100.06;;;-0.07;100.00
10466;BME280;5280;42.600;23.556;2023-02-13T02:13:18;95120.69;;;0.07;100.00
10466;BME280;5280;42.600;23.556;2023-02-13T02:15:46;95084.53;;;-0.12;100.00
10466;BME280;5280;42.600;23.556;2023-02-13T02:18:15;95109.47;;;0.05;100.00
10466;BME280;5280;42.600;23.556;2023-02-13T02:21:00;95114.59;;;0.08;100.00
10466;BME280;5280;42.600;23.556;2023-02-13T02:23:55;95105.19;;;-0.01;100.00
10466;BME280;5280;42.600;23.556;2023-02-13T02:33:12;95125.00;;;0.06;100.00
10466;BME280;5280;42.600;23.556;2023-02-13T02:35:46;95123.28;;;0.07;100.00
10466;BME280;5280;42.600;23.556;2023-02-13T02:38:31;95107.78;;;-0.01;100.00
10466;BME280;5280;42.600;23.556;2023-02-13T02:41:06;95117.44;;;-0.11;100.00
10466;BME280;5280;42.600;23.556;2023-02-13T02:43:45;95135.47;;;0.03;100.00
10466;BME280;5280;42.600;23.556;2023-02-13T02:46:19;95129.44;;;-0.04;100.00
10466;BME280;5280;42.600;23.556;2023-02-13T02:48:55;95145.84;;;0.02;100.00
10466;BME280;5280;42.600;23.556;2023-02-13T02:51:47;95147.53;;;0.07;100.00
10466;BME280;5280;42.600;23.556;2023-02-13T02:54:24;95154.50;;;0.04;100.00
10466;BME280;5280;42.600;23.556;2023-02-13T02:57:15;95151.97;;;-0.03;100.00
10466;BME280;5280;42.600;23.556;2023-02-13T02:59:45;95158.03;;;-0.04;100.00
10466;BME280;5280;42.600;23.556;2023-02-13T03:02:31;95129.56;;;-0.14;100.00
10466;BME280;5280;42.600;23.556;2023-02-13T03:05:20;95157.22;;;-0.09;100.00
10466;BME280;5280;42.600;23.556;2023-02-13T03:08:05;95141.78;;;-0.21;100.00
10466;BME280;5280;42.600;23.556;2023-02-13T03:10:35;95149.59;;;-0.24;100.00
10466;BME280;5280;42.600;23.556;2023-02-13T03:13:30;95150.44;;;-0.25;100.00
10466;BME280;5280;42.600;23.556;2023-02-13T03:16:00;95141.03;;;-0.33;100.00
10466;BME280;5280;42.600;23.556;2023-02-13T03:18:48;95126.41;;;-0.42;100.00
10466;BME280;5280;42.600;23.556;2023-02-13T03:21:44;95130.66;;;-0.35;100.00
10466;BME280;5280;42.600;23.556;2023-02-13T03:24:37;95137.66;;;-0.41;100.00
10466;BME280;5280;42.600;23.556;2023-02-13T03:27:15;95146.34;;;-0.47;100.00
10466;BME280;5280;42.600;23.556;2023-02-13T03:30:15;95146.34;;;-0.46;100.00
10466;BME280;5280;42.600;23.556;2023-02-13T03:32:48;95128.25;;;-0.58;100.00
10466;BME280;5280;42.600;23.556;2023-02-13T03:35:27;95145.44;;;-0.45;100.00
10466;BME280;5280;42.600;23.556;2023-02-13T03:38:22;95113.69;;;-0.74;100.00
10466;BME280;5280;42.600;23.556;2023-02-13T03:40:57;95146.38;;;-0.50;100.00
10466;BME280;5280;42.600;23.556;2023-02-13T03:43:54;95158.44;;;-0.43;100.00
10466;BME280;5280;42.600;23.556;2023-02-13T03:46:23;95154.09;;;-0.43;100.00
10466;BME280;5280;42.600;23.556;2023-02-13T03:48:55;95147.22;;;-0.45;100.00
10466;BME280;5280;42.600;23.556;2023-02-13T03:51:43;95160.16;;;-0.42;100.00
10466;BME280;5280;42.600;23.556;2023-02-13T03:54:19;95155.00;;;-0.45;100.00
10466;BME280;5280;42.600;23.556;2023-02-13T03:56:49;95153.28;;;-0.48;100.00
10466;BME280;5280;42.600;23.556;2023-02-13T03:59:36;95142.88;;;-0.49;100.00
10466;BME280;5280;42.600;23.556;2023-02-13T04:02:09;95153.28;;;-0.46;100.00
10466;BME280;5280;42.600;23.556;2023-02-13T04:04:43;95151.53;;;-0.49;100.00
10466;BME280;5280;42.600;23.556;2023-02-13T04:07:14;95133.59;;;-0.70;100.00
10466;BME280;5280;42.600;23.556;2023-02-13T04:09:56;95151.53;;;-0.47;100.00
10466;BME280;5280;42.600;23.556;2023-02-13T04:12:34;95142.09;;;-0.56;100.00
10466;BME280;5280;42.600;23.556;2023-02-13T04:15:07;95153.38;;;-0.60;100.00
10466;BME280;5280;42.600;23.556;2023-02-13T04:17:38;95132.72;;;-0.73;100.00
10466;BME280;5280;42.600;23.556;2023-02-13T04:20:07;95162.84;;;-0.51;100.00
10466;BME280;5280;42.600;23.556;2023-02-13T04:22:40;95137.78;;;-0.57;100.00
10466;BME280;5280;42.600;23.556;2023-02-13T04:25:09;95149.00;;;-0.52;100.00
10466;BME280;5280;42.600;23.556;2023-02-13T04:27:36;95144.72;;;-0.56;100.00
10466;BME280;5280;42.600;23.556;2023-02-13T04:30:07;95155.00;;;-0.47;100.00
10466;BME280;5280;42.600;23.556;2023-02-13T04:32:34;95162.78;;;-0.47;100.00
10466;BME280;5280;42.600;23.556;2023-02-13T04:35:01;95168.84;;;-0.48;100.00
10466;BME280;5280;42.600;23.556;2023-02-13T04:37:28;95161.03;;;-0.43;100.00
10466;BME280;5280;42.600;23.556;2023-02-13T04:39:57;95156.59;;;-0.30;100.00
10466;BME280;5280;42.600;23.556;2023-02-13T04:42:25;95158.31;;;-0.31;100.00
10466;BME280;5280;42.600;23.556;2023-02-13T04:44:52;95161.03;;;-0.43;100.00
10466;BME280;5280;42.600;23.556;2023-02-13T04:47:19;95163.53;;;-0.31;100.00
10466;BME280;5280;42.600;23.556;2023-02-13T04:49:45;95155.69;;;-0.28;100.00
10466;BME280;5280;42.600;23.556;2023-02-13T04:52:12;95168.69;;;-0.28;100.00
10466;BME280;5280;42.600;23.556;2023-02-13T04:54:39;95176.47;;;-0.28;100.00
10466;BME280;5280;42.600;23.556;2023-02-13T04:57:06;95179.09;;;-0.31;100.00
10466;BME280;5280;42.600;23.556;2023-02-13T04:59:35;95127.41;;;-0.55;100.00
10466;BME280;5280;42.600;23.556;2023-02-13T05:02:01;95123.97;;;-0.60;100.00
10466;BME280;5280;42.600;23.556;2023-02-13T05:04:28;95186.91;;;-0.31;100.00
10466;BME280;5280;42.600;23.556;2023-02-13T05:06:55;95179.16;;;-0.35;100.00
10466;BME280;5280;42.600;23.556;2023-02-13T05:09:22;95177.31;;;-0.26;100.00
10466;BME280;5280;42.600;23.556;2023-02-13T05:11:50;95176.50;;;-0.31;100.00
10466;BME280;5280;42.600;23.556;2023-02-13T05:14:18;95168.84;;;-0.49;100.00
10466;BME280;5280;42.600;23.556;2023-02-13T05:16:46;95167.13;;;-0.47;100.00
10466;BME280;5280;42.600;23.556;2023-02-13T05:19:14;95174.00;;;-0.45;100.00
10466;BME280;5280;42.600;23.556;2023-02-13T05:21:41;95189.59;;;-0.45;100.00
10466;BME280;5280;42.600;23.556;2023-02-13T05:24:25;95186.16;;;-0.47;100.00
10466;BME280;5280;42.600;23.556;2023-02-13T05:26:52;95189.66;;;-0.51;100.00
10466;BME280;5280;42.600;23.556;2023-02-13T05:29:19;95184.53;;;-0.58;100.00
10466;BME280;5280;42.600;23.556;2023-02-13T05:31:50;95158.63;;;-0.67;100.00
10466;BME280;5280;42.600;23.556;2023-02-13T05:34:18;95189.66;;;-0.52;100.00
10466;BME280;5280;42.600;23.556;2023-02-13T05:36:45;95161.19;;;-0.61;100.00
10466;BME280;5280;42.600;23.556;2023-02-13T05:39:12;95178.50;;;-0.63;100.00
10466;BME280;5280;42.600;23.556;2023-02-13T05:41:39;95188.88;;;-0.60;100.00
10466;BME280;5280;42.600;23.556;2023-02-13T05:44:06;95203.44;;;-0.43;100.00
10466;BME280;5280;42.600;23.556;2023-02-13T05:46:33;95203.47;;;-0.46;100.00
10466;BME280;5280;42.600;23.556;2023-02-13T05:49:01;95199.06;;;-0.39;100.00
10466;BME280;5280;42.600;23.556;2023-02-13T05:51:28;95210.41;;;-0.46;100.00
10466;BME280;5280;42.600;23.556;2023-02-13T05:53:54;95209.50;;;-0.40;100.00
10466;BME280;5280;42.600;23.556;2023-02-13T05:56:21;95211.19;;;-0.35;100.00
10466;BME280;5280;42.600;23.556;2023-02-13T05:58:50;95205.94;;;-0.30;100.00
10466;BME280;5280;42.600;23.556;2023-02-13T06:01:17;95206.78;;;-0.30;100.00
10466;BME280;5280;42.600;23.556;2023-02-13T06:03:43;95204.22;;;-0.33;100.00
10466;BME280;5280;42.600;23.556;2023-02-13T06:06:11;95218.91;;;-0.26;100.00
10466;BME280;5280;42.600;23.556;2023-02-13T06:08:38;95175.78;;;-0.47;100.00
10466;BME280;5280;42.600;23.556;2023-02-13T06:11:05;95192.13;;;-0.35;100.00
10466;BME280;5280;42.600;23.556;2023-02-13T06:13:32;95216.22;;;-0.20;100.00
10466;BME280;5280;42.600;23.556;2023-02-13T06:15:59;95212.75;;;-0.19;100.00
10466;BME280;5280;42.600;23.556;2023-02-13T06:18:26;95217.84;;;-0.08;100.00
10466;BME280;5280;42.600;23.556;2023-02-13T06:20:53;95213.53;;;-0.09;100.00
10466;BME280;5280;42.600;23.556;2023-02-13T06:23:21;95205.81;;;-0.17;100.00
10466;BME280;5280;42.600;23.556;2023-02-13T06:25:48;95218.72;;;-0.08;100.00
10466;BME280;5280;42.600;23.556;2023-02-13T06:28:15;95157.53;;;-0.39;100.00
10466;BME280;5280;42.600;23.556;2023-02-13T06:30:45;95198.06;;;-0.23;100.00
10466;BME280;5280;42.600;23.556;2023-02-13T06:33:15;95223.88;;;0.00;100.00
10466;BME280;5280;42.600;23.556;2023-02-13T06:35:42;95221.19;;;0.08;100.00
10466;BME280;5280;42.600;23.556;2023-02-13T06:38:09;95229.81;;;0.10;100.00
10466;BME280;5280;42.600;23.556;2023-02-13T06:40:37;95234.94;;;0.19;100.00
10466;BME280;5280;42.600;23.556;2023-02-13T06:43:03;95223.69;;;0.17;100.00
10466;BME280;5280;42.600;23.556;2023-02-13T06:45:30;95223.72;;;0.11;100.00
10466;BME280;5280;42.600;23.556;2023-02-13T06:47:57;95235.81;;;0.16;100.00
10466;BME280;5280;42.600;23.556;2023-02-13T06:50:24;95228.88;;;0.18;100.00
10466;BME280;5280;42.600;23.556;2023-02-13T06:52:51;95217.75;;;0.03;100.00
10466;BME280;5280;42.600;23.556;2023-02-13T06:55:18;95233.13;;;0.25;100.00
10466;BME280;5280;42.600;23.556;2023-02-13T06:57:46;95239.22;;;0.24;100.00
10466;BME280;5280;42.600;23.556;2023-02-13T07:00:15;95235.72;;;0.25;100.00
10466;BME280;5280;42.600;23.556;2023-02-13T07:02:44;95210.72;;;0.11;100.00
10466;BME280;5280;42.600;23.556;2023-02-13T07:05:11;95227.09;;;0.22;100.00
10466;BME280;5280;42.600;23.556;2023-02-13T07:07:40;95203.78;;;0.13;100.00
10466;BME280;5280;42.600;23.556;2023-02-13T07:10:08;95223.47;;;0.36;100.00
10466;BME280;5280;42.600;23.556;2023-02-13T07:12:36;95223.53;;;0.30;100.00
10466;BME280;5280;42.600;23.556;2023-02-13T07:15:05;95219.22;;;0.28;100.00
10466;BME280;5280;42.600;23.556;2023-02-13T07:17:33;95231.38;;;0.29;100.00
10466;BME280;5280;42.600;23.556;2023-02-13T07:20:00;95208.81;;;0.29;100.00
10466;BME280;5280;42.600;23.556;2023-02-13T07:22:29;95222.59;;;0.37;100.00
10466;BME280;5280;42.600;23.556;2023-02-13T07:24:59;95207.97;;;0.29;100.00
10466;BME280;5280;42.600;23.556;2023-02-13T07:27:27;95227.81;;;0.36;100.00
10466;BME280;5280;42.600;23.556;2023-02-13T07:29:54;95214.81;;;0.36;100.00
10466;BME280;5280;42.600;23.556;2023-02-13T07:32:23;95231.97;;;0.52;100.00
10466;BME280;5280;42.600;23.556;2023-02-13T07:34:51;95237.09;;;0.58;100.00
10466;BME280;5280;42.600;23.556;2023-02-13T07:37:18;95241.34;;;0.65;100.00
10466;BME280;5280;42.600;23.556;2023-02-13T07:39:45;95200.81;;;0.49;100.00
10466;BME280;5280;42.600;23.556;2023-02-13T07:42:14;95225.78;;;0.64;100.00
10466;BME280;5280;42.600;23.556;2023-02-13T07:44:41;95221.38;;;0.67;100.00
10466;BME280;5280;42.600;23.556;2023-02-13T07:47:07;95234.31;;;0.73;100.00
10466;BME280;5280;42.600;23.556;2023-02-13T07:49:35;95239.41;;;0.81;100.00
10466;BME280;5280;42.600;23.556;2023-02-13T07:52:03;95235.91;;;0.85;100.00
10466;BME280;5280;42.600;23.556;2023-02-13T07:54:30;95222.94;;;0.80;100.00
10466;BME280;5280;42.600;23.556;2023-02-13T07:56:57;95251.44;;;0.93;100.00
10466;BME280;5280;42.600;23.556;2023-02-13T07:59:24;95240.09;;;0.98;100.00
10466;BME280;5280;42.600;23.556;2023-02-13T08:01:53;95224.53;;;0.92;100.00
10466;BME280;5280;42.600;23.556;2023-02-13T08:04:20;95224.41;;;1.01;100.00
10466;BME280;5280;42.600;23.556;2023-02-13T08:06:48;95231.28;;;1.07;100.00
10466;BME280;5280;42.600;23.556;2023-02-13T08:09:19;95228.69;;;1.05;100.00
10466;BME280;5280;42.600;23.556;2023-02-13T08:12:05;95225.28;;;1.03;99.57
10466;BME280;5280;42.600;23.556;2023-02-13T08:14:32;95238.22;;;1.08;98.70
10466;BME280;5280;42.600;23.556;2023-02-13T08:17:00;95232.16;;;1.06;98.56
10466;BME280;5280;42.600;23.556;2023-02-13T08:19:27;95227.00;;;1.04;99.78
10466;BME280;5280;42.600;23.556;2023-02-13T08:21:56;95229.50;;;1.10;100.00
10466;BME280;5280;42.600;23.556;2023-02-13T08:24:23;95226.88;;;1.10;100.00
10466;BME280;5280;42.600;23.556;2023-02-13T08:26:50;95219.19;;;1.04;99.90
10466;BME280;5280;42.600;23.556;2023-02-13T08:29:16;95226.09;;;1.05;99.26
10466;BME280;5280;42.600;23.556;2023-02-13T08:31:44;95238.94;;;1.19;99.67
10466;BME280;5280;42.600;23.556;2023-02-13T08:34:11;95224.94;;;1.26;100.00
10466;BME280;5280;42.600;23.556;2023-02-13T08:36:38;95231.78;;;1.33;99.20
10466;BME280;5280;42.600;23.556;2023-02-13T08:39:07;95232.59;;;1.38;99.58
10466;BME280;5280;42.600;23.556;2023-02-13T08:41:37;95229.09;;;1.39;99.09
10466;BME280;5280;42.600;23.556;2023-02-13T08:44:06;95236.72;;;1.53;99.06
10466;BME280;5280;42.600;23.556;2023-02-13T08:46:33;95233.25;;;1.52;97.93
10466;BME280;5280;42.600;23.556;2023-02-13T08:49:00;95241.84;;;1.59;97.70
10466;BME280;5280;42.600;23.556;2023-02-13T08:51:26;95242.66;;;1.61;97.65
10466;BME280;5280;42.600;23.556;2023-02-13T08:53:53;95240.84;;;1.66;96.74
10466;BME280;5280;42.600;23.556;2023-02-13T08:56:21;95239.97;;;1.65;96.39
10466;BME280;5280;42.600;23.556;2023-02-13T08:58:48;95232.13;;;1.68;96.00
10466;BME280;5280;42.600;23.556;2023-02-13T09:01:16;95236.44;;;1.69;96.79
10466;BME280;5280;42.600;23.556;2023-02-13T09:03:43;95242.44;;;1.74;95.51
10466;BME280;5280;42.600;23.556;2023-02-13T09:06:09;95233.72;;;1.79;96.06
10466;BME280;5280;42.600;23.556;2023-02-13T09:08:36;95231.03;;;1.82;96.94
10466;BME280;5280;42.600;23.556;2023-02-13T09:11:04;95230.97;;;1.85;96.33
10466;BME280;5280;42.600;23.556;2023-02-13T09:13:34;95219.75;;;1.80;96.43
10466;BME280;5280;42.600;23.556;2023-02-13T09:16:02;95227.47;;;1.89;95.51
10466;BME280;5280;42.600;23.556;2023-02-13T09:18:30;95224.88;;;1.87;95.74
10466;BME280;5280;42.600;23.556;2023-02-13T09:20:58;95248.19;;;1.95;96.11
10466;BME280;5280;42.600;23.556;2023-02-13T09:23:26;95226.41;;;1.99;95.81
10466;BME280;5280;42.600;23.556;2023-02-13T09:25:58;95227.25;;;2.01;95.80
10466;BME280;5280;42.600;23.556;2023-02-13T09:28:24;95225.38;;;2.09;95.02
10466;BME280;5280;42.600;23.556;2023-02-13T09:30:53;95218.59;;;1.99;94.66
10466;BME280;5280;42.600;23.556;2023-02-13T09:33:20;95229.75;;;2.07;93.57
10466;BME280;5280;42.600;23.556;2023-02-13T09:35:46;95214.88;;;2.12;93.51
10466;BME280;5280;42.600;23.556;2023-02-13T09:38:13;95212.22;;;2.15;91.92
10466;BME280;5280;42.600;23.556;2023-02-13T09:40:43;95172.53;;;1.98;92.74
10466;BME280;5280;42.600;23.556;2023-02-13T09:43:13;95174.13;;;2.06;93.04
10466;BME280;5280;42.600;23.556;2023-02-13T09:45:43;95194.88;;;2.14;92.50
10466;BME280;5280;42.600;23.556;2023-02-13T09:48:19;95207.50;;;2.35;92.30
10466;BME280;5280;42.600;23.556;2023-02-13T09:50:50;95205.75;;;2.36;91.99
10466;BME280;5280;42.600;23.556;2023-02-13T09:53:21;95212.69;;;2.37;91.86
10466;BME280;5280;42.600;23.556;2023-02-13T09:55:55;95186.59;;;2.37;91.34
10466;BME280;5280;42.600;23.556;2023-02-13T09:58:37;95195.22;;;2.40;91.33
10466;BME280;5280;42.600;23.556;2023-02-13T10:01:16;95199.28;;;2.55;91.21
10466;BME280;5280;42.600;23.556;2023-02-13T10:03:51;95181.19;;;2.47;90.89
10466;BME280;5280;42.600;23.556;2023-02-13T10:06:26;95198.25;;;2.64;91.20
10466;BME280;5280;42.600;23.556;2023-02-13T10:09:09;95169.66;;;2.59;91.06
10466;BME280;5280;42.600;23.556;2023-02-13T10:11:55;95198.00;;;2.76;89.61
10466;BME280;5280;42.600;23.556;2023-02-13T10:14:31;95182.22;;;2.82;89.11
10466;BME280;5280;42.600;23.556;2023-02-13T10:17:06;95171.00;;;2.77;89.85
10466;BME280;5280;42.600;23.556;2023-02-13T10:19:40;95186.66;;;2.78;88.70
10466;BME280;5280;42.600;23.556;2023-02-13T10:22:13;95173.63;;;2.77;89.72
10466;BME280;5280;42.600;23.556;2023-02-13T10:24:46;95121.75;;;2.60;89.12
10466;BME280;5280;42.600;23.556;2023-02-13T10:27:19;95170.78;;;2.89;87.59
10466;BME280;5280;42.600;23.556;2023-02-13T10:29:51;95158.41;;;2.97;88.14
10466;BME280;5280;42.600;23.556;2023-02-13T10:32:51;95143.75;;;2.90;89.39
10466;BME280;5280;42.600;23.556;2023-02-13T10:35:37;95155.69;;;3.01;86.86
10466;BME280;5280;42.600;23.556;2023-02-13T10:38:14;95151.44;;;2.96;86.84
10466;BME280;5280;42.600;23.556;2023-02-13T10:40:53;95135.09;;;2.88;86.38
10466;BME280;5280;42.600;23.556;2023-02-13T10:43:26;95139.56;;;2.83;87.23
10466;BME280;5280;42.600;23.556;2023-02-13T10:46:04;95141.19;;;2.88;88.37
10466;BME280;5280;42.600;23.556;2023-02-13T10:48:49;95138.59;;;2.87;87.87
10466;BME280;5280;42.600;23.556;2023-02-13T10:51:26;95130.69;;;2.90;87.62
10466;BME280;5280;42.600;23.556;2023-02-13T10:54:14;95061.97;;;2.49;86.30
10466;BME280;5280;42.600;23.556;2023-02-13T10:56:49;95137.50;;;2.97;87.81
10466;BME280;5280;42.600;23.556;2023-02-13T10:59:33;95128.22;;;2.84;87.75
10466;BME280;5280;42.600;23.556;2023-02-13T11:02:18;95122.03;;;2.88;87.20
10466;BME280;5280;42.600;23.556;2023-02-13T11:04:46;95118.50;;;2.90;86.13
10466;BME280;5280;42.600;23.556;2023-02-13T11:07:18;95118.47;;;2.92;87.81
10466;BME280;5280;42.600;23.556;2023-02-13T11:09:48;95111.38;;;2.98;85.65
10466;BME280;5280;42.600;23.556;2023-02-13T11:12:25;95090.88;;;2.80;87.83
10466;BME280;5280;42.600;23.556;2023-02-13T11:14:53;95100.97;;;2.95;87.62
10466;BME280;5280;42.600;23.556;2023-02-13T11:17:21;95086.03;;;3.02;87.60
10466;BME280;5280;42.600;23.556;2023-02-13T11:19:50;95087.53;;;3.12;85.96
10466;BME280;5280;42.600;23.556;2023-02-13T11:22:31;95094.47;;;3.13;86.27
10466;BME280;5280;42.600;23.556;2023-02-13T11:25:01;95082.09;;;3.21;85.83
10466;BME280;5280;42.600;23.556;2023-02-13T11:27:34;95035.81;;;2.91;86.63
10466;BME280;5280;42.600;23.556;2023-02-13T11:30:04;95080.13;;;3.29;85.59
10466;BME280;5280;42.600;23.556;2023-02-13T11:35:25;95060.03;;;3.33;84.99
10466;BME280;5280;42.600;23.556;2023-02-13T11:40:50;95073.69;;;3.44;83.72
10466;BME280;5280;42.600;23.556;2023-02-13T11:43:28;95039.13;;;3.33;83.45
10466;BME280;5280;42.600;23.556;2023-02-13T11:46:01;95053.56;;;3.47;83.83
10466;BME280;5280;42.600;23.556;2023-02-13T11:48:28;95052.75;;;3.45;83.99
10466;BME280;5280;42.600;23.556;2023-02-13T11:50:56;95053.25;;;3.60;83.00
10466;BME280;5280;42.600;23.556;2023-02-13T11:53:26;95033.19;;;3.60;81.72
10466;BME280;5280;42.600;23.556;2023-02-13T11:56:07;95037.41;;;3.66;83.27
10466;BME280;5280;42.600;23.556;2023-02-13T11:58:35;95024.47;;;3.61;83.34
10466;BME280;5280;42.600;23.556;2023-02-13T12:01:23;95011.41;;;3.60;83.78
10466;BME280;5280;42.600;23.556;2023-02-13T12:04:01;95021.28;;;3.82;82.67
10466;BME280;5280;42.600;23.556;2023-02-13T12:06:28;95011.84;;;3.77;80.50
10466;BME280;5280;42.600;23.556;2023-02-13T12:08:56;94963.88;;;3.45;80.81
10466;BME280;5280;42.600;23.556;2023-02-13T12:11:33;95023.81;;;3.84;79.94
10466;BME280;5280;42.600;23.556;2023-02-13T12:14:08;95024.75;;;3.83;80.10
10466;BME280;5280;42.600;23.556;2023-02-13T12:16:40;95015.44;;;3.73;81.85
10466;BME280;5280;42.600;23.556;2023-02-13T12:19:12;94987.47;;;3.75;80.84
10466;BME280;5280;42.600;23.556;2023-02-13T12:21:52;95004.44;;;3.93;81.22
10466;BME280;5280;42.600;23.556;2023-02-13T12:24:39;95000.53;;;4.07;80.70
10466;BME280;5280;42.600;23.556;2023-02-13T12:27:17;94991.97;;;4.02;81.48
10466;BME280;5280;42.600;23.556;2023-02-13T12:30:03;94996.09;;;4.09;80.16
10466;BME280;5280;42.600;23.556;2023-02-13T12:32:41;95002.13;;;4.13;80.36
10466;BME280;5280;42.600;23.556;2023-02-13T12:35:55;95003.56;;;4.23;79.75
10466;BME280;5280;42.600;23.556;2023-02-13T12:38:48;94983.13;;;4.36;78.48
10466;BME280;5280;42.600;23.556;2023-02-13T12:41:37;94926.09;;;4.17;78.04
10466;BME280;5280;42.600;23.556;2023-02-13T12:47:15;94980.75;;;4.56;77.74
10466;BME280;5280;42.600;23.556;2023-02-13T12:52:51;94978.72;;;4.65;77.80
10466;BME280;5280;42.600;23.556;2023-02-13T12:55:40;94982.88;;;4.72;76.85
10466;BME280;5280;42.600;23.556;2023-02-13T12:58:45;94978.50;;;4.73;77.69
10466;BME280;5280;42.600;23.556;2023-02-13T13:01:22;94947.69;;;4.53;76.45
10466;BME280;5280;42.600;23.556;2023-02-13T13:03:58;94963.72;;;4.70;75.72
10466;BME280;5280;42.600;23.556;2023-02-13T13:06:48;94966.28;;;4.72;75.29
10466;BME280;5280;42.600;23.556;2023-02-13T13:12:31;94963.03;;;4.64;73.06
10466;BME280;5280;42.600;23.556;2023-02-13T13:15:05;94948.28;;;4.61;73.24
10466;BME280;5280;42.600;23.556;2023-02-13T13:17:55;94945.91;;;4.54;73.06
10466;BME280;5280;42.600;23.556;2023-02-13T13:20:47;94951.78;;;4.62;73.33
10466;BME280;5280;42.600;23.556;2023-02-13T13:23:20;94952.66;;;4.61;74.56
10466;BME280;5280;42.600;23.556;2023-02-13T13:26:10;94942.09;;;4.64;75.45
10466;BME280;5280;42.600;23.556;2023-02-13T13:28:43;94936.06;;;4.62;74.55
10466;BME280;5280;42.600;23.556;2023-02-13T13:31:12;94925.63;;;4.60;74.74
10466;BME280;5280;42.600;23.556;2023-02-13T13:33:43;94947.28;;;4.65;72.63
10466;BME280;5280;42.600;23.556;2023-02-13T13:36:14;94924.53;;;4.67;72.92
10466;BME280;5280;42.600;23.556;2023-02-13T13:38:50;94931.25;;;4.76;73.37
10466;BME280;5280;42.600;23.556;2023-02-13T13:41:25;94932.75;;;4.83;72.85
10466;BME280;5280;42.600;23.556;2023-02-13T13:44:04;94932.75;;;4.83;70.07
10466;BME280;5280;42.600;23.556;2023-02-13T13:46:46;94921.59;;;4.78;65.01
10466;BME280;5280;42.600;23.556;2023-02-13T13:49:28;94932.53;;;4.89;64.60